Wednesday, September 20, 2017, 9:34 PM EDT
Back to Local

KCXY, Harrisburg Capital City

Location: New Cumberland, PA, United States Lat: 40.217
Local Time: 9:34 PM EDT ( 1:34 GMT) Lon: -76.85
Time Zone: US/Eastern Elev: 347 ft

Show me the last for .
Show Coded

Time T Td Feel RH Dir Speed Gust Alt SLP Vis Weather Sky Remarks
2017-09-20 20:56 73 61 77 65 270° 3 - 29.97 29.96 10 CLR None
2017-09-20 19:56 74 61 77 64 240° 5 - 29.95 29.95 10 CLR 6-hr Min Temp (8pm): 73.9°F
6-hr Max Temp (8pm): 87.1°F
2017-09-20 18:56 83 58 83 42 310° 3 - 29.95 29.94 10 CLR None
2017-09-20 17:56 86 57 - 37 350° 7 - 29.94 29.93 10 CLR None
2017-09-20 16:56 86 58 - 38 310° 9 - 29.94 29.93 10 CLR None
2017-09-20 15:56 86 57 - 37 330° 9 - 29.94 29.93 10 CLR None
2017-09-20 14:56 86 60 87 41 340° 8 - 29.94 29.93 10 CLR None
2017-09-20 13:56 84 61 85 45 320° 7 - 29.95 29.94 10 CLR 6-hr Min Temp (2pm): 68.0°F
6-hr Max Temp (2pm): 84.9°F
2017-09-20 12:56 82 61 83 49 320° 10 - 29.97 29.96 10 CLR None
2017-09-20 11:56 80 61 81 52 330° 8 - 29.98 29.97 10 CLR None
2017-09-20 10:56 78 60 80 54 330° 10 - 29.98 29.98 10 CLR None
2017-09-20 09:56 75 60 78 59 290° 7 - 29.99 29.99 10 CLR None
2017-09-20 08:56 73 60 77 63 320° 6 - 29.98 29.98 10 CLR None
2017-09-20 07:56 68 61 - 78 250° 5 - 29.97 29.97 10 OVC120 6-hr Min Temp (8am): 66.0°F
6-hr Max Temp (8am): 69.1°F
2017-09-20 06:56 68 60 - 75 270° 5 - 29.96 29.95 10 BKN120 None
2017-09-20 05:56 68 61 - 78 270° 7 - 29.94 29.94 10 OVC110 None
2017-09-20 04:56 68 62 - 81 260° 7 - 29.93 29.92 10 OVC100 None
2017-09-20 03:56 68 62 - 81 260° 5 - 29.93 29.92 10 OVC100 None
2017-09-20 02:56 67 62 - 84 - Calm - 29.93 29.93 10 BKN100 None
2017-09-20 01:56 67 62 - 84 250° 6 - 29.94 29.93 10 CLR 6-hr Min Temp (2am): 66.0°F
6-hr Max Temp (2am): 72.0°F
2017-09-20 00:56 67 63 - 87 - Calm - 29.94 29.94 10 OVC100 24-hr Min Temp (1am): 62.1°F
24-hr Max Temp (1am): 80.1°F
2017-09-19 23:56 66 62 - 87 240° 5 - 29.94 29.94 10 CLR None
2017-09-19 22:56 68 63 - 83 - Calm - 29.95 29.95 10 SCT055 BKN095 None
2017-09-19 21:56 67 62 - 84 240° 5 - 29.94 29.93 10 CLR None

Support USWX by starting your Amazon purchase here.